Time;durP1;ratioP1;P1;durP2;ratioP2;P2;SDS_P1;SDS_P2;PMS_P1;PMS_P2;Temp;Humidity;BMP_temperature;BMP_pressure;BME280_temperature;BME280_humidity;BME280_pressure;Samples;Min_cycle;Max_cycle;Signal;HPM_P1;HPM_P2
2023/09/09 00:01:26;;;;;;;8.48;5.70;;;512.20;2380.80;;;;;;5098787;28;20051;-84
2023/09/09 00:03:52;;;;;;;8.23;5.40;;;512.20;2380.80;;;;;;5097399;28;20035;-84
2023/09/09 00:06:17;;;;;;;8.05;5.15;;;512.20;2380.80;;;;;;5106966;28;20036;-80
2023/09/09 00:08:43;;;;;;;8.73;5.22;;;512.00;2380.80;;;;;;5117869;28;20032;-80
2023/09/09 00:11:10;;;;;;;7.30;5.18;;;;;;;;;;5112698;28;20046;-80
2023/09/09 00:13:37;;;;;;;7.85;5.15;;;;;;;;;;5112232;28;20035;-79
2023/09/09 00:16:03;;;;;;;10.15;5.47;;;;;;;;;;5116398;28;20023;-79
2023/09/09 00:18:29;;;;;;;8.38;5.10;;;;;;;;;;5113195;28;20015;-80
2023/09/09 00:20:55;;;;;;;7.45;4.75;;;;;;;;;;5118333;28;20023;-80
2023/09/09 00:23:21;;;;;;;8.40;5.25;;;;;;;;;;5113471;28;20023;-79
2023/09/09 00:25:48;;;;;;;7.47;5.13;;;;;;;;;;5119050;28;20042;-82
2023/09/09 00:28:14;;;;;;;7.88;5.30;;;;;;;;;;5117431;28;20043;-80
2023/09/09 00:30:41;;;;;;;8.50;4.95;;;;;;;;;;5118101;28;20046;-81
2023/09/09 00:33:08;;;;;;;7.47;5.30;;;;;;;;;;5115481;28;20024;-82
2023/09/09 00:35:34;;;;;;;9.00;5.57;;;;;;;;;;5118002;28;20035;-79
2023/09/09 00:38:00;;;;;;;8.05;5.43;;;;;;;;;;5117057;28;20023;-79
2023/09/09 00:40:26;;;;;;;8.15;5.15;;;;;;;;;;5116116;28;20030;-85
2023/09/09 00:42:52;;;;;;;8.25;5.50;;;;;;;;;;5116569;28;20062;-79
2023/09/09 00:45:19;;;;;;;9.93;5.30;;;;;;;;;;5116501;28;20016;-80
2023/09/09 00:47:45;;;;;;;7.57;4.85;;;;;;;;;;5115824;28;20080;-80
2023/09/09 00:50:13;;;;;;;7.25;5.20;;;;;;;;;;5117231;28;20016;-79
2023/09/09 00:52:40;;;;;;;9.57;5.40;;;;;;;;;;5115045;28;20103;-80
2023/09/09 00:55:07;;;;;;;7.75;5.22;;;;;;;;;;5104843;28;20020;-79
2023/09/09 00:57:34;;;;;;;9.63;5.07;;;;;;;;;;5100300;28;20023;-81
2023/09/09 01:00:05;;;;;;;8.13;5.13;;;512.20;2380.80;;;;;;5104036;28;20035;-81
2023/09/09 01:02:32;;;;;;;7.43;5.22;;;512.00;2380.80;;;;;;5105345;28;20076;-80
2023/09/09 01:05:03;;;;;;;7.35;5.30;;;487.20;2380.80;;;;;;5108261;28;20449;-79
2023/09/09 01:07:41;;;;;;;8.07;5.53;;;;;;;;;;5109743;28;20412;-84
2023/09/09 01:10:07;;;;;;;10.32;5.93;;;512.10;2380.80;;;;;;5104119;28;20099;-79
2023/09/09 01:12:33;;;;;;;8.15;5.50;;;512.50;2380.80;;;;;;5103155;28;20040;-79
2023/09/09 01:14:59;;;;;;;8.27;5.80;;;487.00;2380.80;;;;;;5107300;28;20020;-82
2023/09/09 01:17:25;;;;;;;8.10;5.93;;;487.00;2380.80;;;;;;5102640;28;20112;-82
2023/09/09 01:19:51;;;;;;;8.73;5.88;;;487.20;2380.80;;;;;;5107357;28;20135;-84
2023/09/09 01:22:18;;;;;;;10.60;5.75;;;487.00;2380.80;;;;;;5106832;28;20063;-81
2023/09/09 01:24:45;;;;;;;9.27;6.00;;;486.90;2380.80;;;;;;5103521;28;20031;-81
2023/09/09 01:27:10;;;;;;;11.98;5.93;;;487.00;2380.80;;;;;;5104642;28;20522;-80
2023/09/09 01:29:36;;;;;;;10.82;6.40;;;486.90;2380.80;;;;;;5104766;28;20039;-81
2023/09/09 01:32:02;;;;;;;9.13;6.03;;;486.90;2380.80;;;;;;5108720;28;20477;-82
2023/09/09 01:34:28;;;;;;;9.57;5.90;;;486.80;2380.80;;;;;;5104179;28;20024;-81
2023/09/09 01:36:53;;;;;;;8.52;6.20;;;486.70;2380.80;;;;;;5103366;28;20049;-79
2023/09/09 01:39:19;;;;;;;8.57;5.78;;;486.60;2380.80;;;;;;5104955;28;20378;-82
2023/09/09 01:41:45;;;;;;;8.80;5.65;;;486.60;2380.80;;;;;;5104549;28;20042;-79
2023/09/09 01:44:11;;;;;;;8.60;5.55;;;486.50;2380.80;;;;;;5105462;28;20493;-80
2023/09/09 01:46:37;;;;;;;8.55;6.10;;;486.50;2380.80;;;;;;5103745;28;20493;-81
2023/09/09 01:49:03;;;;;;;8.55;5.95;;;486.40;2380.80;;;;;;5104497;28;20054;-81
2023/09/09 01:51:31;;;;;;;7.50;5.63;;;486.50;2380.80;;;;;;5103650;28;20098;-80
2023/09/09 01:53:58;;;;;;;8.88;5.38;;;486.40;2380.80;;;;;;5103008;28;20557;-80
2023/09/09 01:56:24;;;;;;;7.88;5.60;;;486.40;2380.80;;;;;;5111339;28;20060;-81
2023/09/09 01:58:50;;;;;;;9.68;5.45;;;486.40;2380.80;;;;;;5108437;28;20052;-82
2023/09/09 02:01:16;;;;;;;8.55;5.20;;;486.40;2380.80;;;;;;5107591;28;20024;-80
2023/09/09 02:03:41;;;;;;;8.85;5.40;;;486.40;2380.80;;;;;;5110035;28;20068;-81
2023/09/09 02:06:07;;;;;;;9.38;5.63;;;486.40;2380.80;;;;;;5108545;28;20042;-81
2023/09/09 02:08:33;;;;;;;9.27;6.00;;;;;;;;;;5107672;28;20497;-80
2023/09/09 02:10:59;;;;;;;9.40;5.72;;;;;;;;;;5100926;28;20038;-82
2023/09/09 02:13:25;;;;;;;7.90;5.65;;;;;;;;;;5106276;28;20019;-80
2023/09/09 02:15:51;;;;;;;8.68;5.55;;;486.40;2380.80;;;;;;5109044;28;20028;-82
2023/09/09 02:18:17;;;;;;;9.35;5.93;;;;;;;;;;5102657;28;20028;-78
2023/09/09 02:20:43;;;;;;;8.68;6.32;;;;;;;;;;5103676;28;20089;-78
2023/09/09 02:23:10;;;;;;;12.30;6.25;;;;;;;;;;5105421;28;20050;-79
2023/09/09 02:25:56;;;;;;;9.68;6.15;;;461.60;2380.80;;;;;;5099664;28;20031;-79
2023/09/09 02:28:22;;;;;;;11.57;6.63;;;461.30;2380.80;;;;;;5102107;28;21652;-83
2023/09/09 02:30:48;;;;;;;9.40;6.65;;;461.30;2380.80;;;;;;5108395;28;20032;-80
2023/09/09 02:33:14;;;;;;;10.07;6.78;;;461.20;2380.80;;;;;;5101394;28;20054;-81
2023/09/09 02:35:43;;;;;;;10.02;7.28;;;;;;;;;;5105301;28;20020;-81
2023/09/09 02:38:09;;;;;;;10.77;7.10;;;;;;;;;;5106500;28;20102;-80
2023/09/09 02:40:35;;;;;;;10.35;7.07;;;;;;;;;;5108538;28;20020;-84
2023/09/09 02:43:02;;;;;;;13.20;7.50;;;;;;;;;;5099964;28;20016;-83
2023/09/09 02:45:28;;;;;;;10.43;7.35;;;;;;;;;;5104712;28;20126;-81
2023/09/09 02:47:54;;;;;;;13.20;7.15;;;;;;;;;;5109303;28;20051;-80
2023/09/09 02:50:20;;;;;;;12.63;7.28;;;;;;;;;;5108124;28;20067;-82
2023/09/09 02:52:49;;;;;;;9.05;6.20;;;;;;;;;;5112188;28;20028;-80
2023/09/09 02:55:16;;;;;;;9.98;5.93;;;;;;;;;;5104097;28;20102;-81
2023/09/09 02:57:42;;;;;;;10.80;6.40;;;;;;;;;;5107328;28;20473;-84
2023/09/09 03:00:08;;;;;;;9.50;5.95;;;;;;;;;;5109604;28;20027;-82
2023/09/09 03:02:35;;;;;;;9.25;6.50;;;;;;;;;;5108544;28;20473;-81
2023/09/09 03:05:03;;;;;;;11.27;6.50;;;;;;;;;;5107596;28;20034;-82
2023/09/09 03:07:29;;;;;;;11.07;6.13;;;;;;;;;;5108009;28;20123;-82
2023/09/09 03:09:56;;;;;;;10.63;6.22;;;;;;;;;;5113742;28;20024;-82
2023/09/09 03:12:22;;;;;;;9.82;6.20;;;;;;;;;;5108155;28;20028;-84
2023/09/09 03:14:48;;;;;;;10.40;6.07;;;;;;;;;;5105951;28;20020;-82
2023/09/09 03:17:14;;;;;;;9.60;6.60;;;;;;;;;;5106289;28;20016;-83
2023/09/09 03:19:40;;;;;;;10.18;6.57;;;;;;;;;;5111514;28;20034;-80
2023/09/09 03:22:07;;;;;;;11.00;6.72;;;;;;;;;;5104317;28;20020;-80
2023/09/09 03:24:33;;;;;;;10.73;6.15;;;;;;;;;;5103364;28;20079;-81
2023/09/09 03:26:59;;;;;;;10.52;6.03;;;;;;;;;;5106382;28;20081;-81
2023/09/09 03:29:25;;;;;;;13.15;6.50;;;;;;;;;;5106836;28;20015;-81
2023/09/09 03:31:51;;;;;;;9.55;5.88;;;;;;;;;;5107524;28;20051;-79
2023/09/09 03:34:17;;;;;;;8.77;5.75;;;;;;;;;;5106739;28;20362;-79
2023/09/09 03:36:43;;;;;;;11.23;6.18;;;;;;;;;;5107577;28;20405;-80
2023/09/09 03:39:09;;;;;;;9.40;6.15;;;;;;;;;;5106525;28;20020;-80
2023/09/09 03:41:36;;;;;;;11.15;6.40;;;;;;;;;;5102246;28;20048;-79
2023/09/09 03:44:02;;;;;;;9.88;5.97;;;;;;;;;;5108719;28;21450;-79
2023/09/09 03:46:28;;;;;;;10.13;6.38;;;;;;;;;;5106107;28;20119;-80
2023/09/09 03:48:54;;;;;;;12.05;6.38;;;;;;;;;;5104433;28;20036;-80
2023/09/09 03:51:20;;;;;;;12.02;6.20;;;;;;;;;;5108025;28;20553;-81
2023/09/09 03:53:46;;;;;;;10.30;6.38;;;;;;;;;;5109474;28;20020;-82
2023/09/09 03:56:12;;;;;;;10.05;6.05;;;;;;;;;;5112649;28;20020;-83
2023/09/09 03:58:38;;;;;;;9.80;6.20;;;;;;;;;;5122965;28;20066;-83
2023/09/09 04:01:05;;;;;;;10.00;6.07;;;;;;;;;;5124935;28;20024;-82
2023/09/09 04:03:35;;;;;;;8.95;5.90;;;;;;;;;;5116800;28;20013;-82
2023/09/09 04:06:06;;;;;;;9.00;5.82;;;;;;;;;;5105613;28;20070;-79
2023/09/09 04:08:32;;;;;;;8.90;5.68;;;;;;;;;;5109056;28;20025;-79
2023/09/09 04:10:59;;;;;;;10.45;5.82;;;;;;;;;;5098651;28;20024;-86
2023/09/09 04:13:25;;;;;;;9.70;5.80;;;;;;;;;;5104321;28;20019;-85
2023/09/09 04:15:54;;;;;;;12.07;6.80;;;;;;;;;;5117020;28;20032;-82
2023/09/09 04:18:20;;;;;;;9.95;6.65;;;;;;;;;;5118292;28;20019;-84
2023/09/09 04:20:46;;;;;;;11.82;8.25;;;;;;;;;;5117928;28;20024;-86
2023/09/09 04:23:13;;;;;;;13.90;9.02;;;;;;;;;;5117500;28;20027;-86
2023/09/09 04:25:39;;;;;;;15.30;9.90;;;;;;;;;;5115464;28;20098;-84
2023/09/09 04:28:06;;;;;;;19.80;12.57;;;;;;;;;;5117856;28;20030;-85
2023/09/09 04:30:32;;;;;;;22.52;13.57;;;;;;;;;;5111424;28;20024;-84
2023/09/09 04:32:58;;;;;;;25.05;12.77;;;;;;;;;;5113110;28;20111;-86
2023/09/09 04:35:24;;;;;;;34.65;19.85;;;;;;;;;;5097307;28;20514;-87
2023/09/09 04:37:50;;;;;;;50.00;26.05;;;;;;;;;;5095557;28;20028;-85
2023/09/09 04:40:35;;;;;;;52.65;29.50;;;;;;;;;;5097078;28;20027;-87
2023/09/09 04:43:01;;;;;;;56.25;31.27;;;;;;;;;;5104721;28;20426;-86
2023/09/09 04:45:27;;;;;;;68.97;36.95;;;;;;;;;;5115862;28;20019;-85
2023/09/09 04:47:54;;;;;;;71.70;37.60;;;;;;;;;;5113217;28;20488;-85
2023/09/09 04:50:20;;;;;;;66.05;35.58;;;;;;;;;;5117154;28;20015;-83
2023/09/09 04:52:47;;;;;;;63.67;34.00;;;;;;;;;;5113699;28;20092;-85
2023/09/09 04:55:32;;;;;;;41.90;22.65;;;;;;;;;;5101152;28;20027;-84
2023/09/09 04:57:58;;;;;;;26.63;14.23;;;;;;;;;;5116194;28;20039;-83
2023/09/09 05:00:24;;;;;;;22.48;11.80;;;;;;;;;;5116589;28;20055;-80
2023/09/09 05:02:50;;;;;;;13.68;7.88;;;;;;;;;;5114090;28;20035;-83
2023/09/09 05:05:16;;;;;;;11.02;6.53;;;;;;;;;;5097595;28;20016;-84
2023/09/09 05:07:42;;;;;;;11.25;6.40;;;;;;;;;;5096470;28;20028;-82
2023/09/09 05:10:08;;;;;;;13.38;6.43;;;;;;;;;;5096502;28;20028;-86
2023/09/09 05:12:36;;;;;;;10.57;6.20;;;;;;;;;;5095093;28;20024;-86
2023/09/09 05:15:04;;;;;;;11.20;6.07;;;;;;;;;;5095096;28;20038;-84
2023/09/09 05:17:30;;;;;;;9.90;6.05;;;;;;;;;;5096344;28;20024;-85
2023/09/09 05:19:56;;;;;;;9.57;6.25;;;;;;;;;;5095245;28;20119;-85
2023/09/09 05:22:22;;;;;;;9.27;6.05;;;;;;;;;;5094786;28;20020;-81
2023/09/09 05:24:48;;;;;;;11.55;6.72;;;461.70;2380.80;;;;;;5107772;28;20028;-84
2023/09/09 05:27:50;;;;;;;12.00;7.00;;;461.50;2380.80;;;;;;5116237;28;20071;-85
2023/09/09 05:30:16;;;;;;;11.32;6.68;;;461.50;2380.80;;;;;;5116194;28;20027;-83
2023/09/09 05:32:42;;;;;;;11.57;6.72;;;;;;;;;;5116354;28;20020;-84
2023/09/09 05:35:10;;;;;;;13.68;6.85;;;;;;;;;;5095988;28;20032;-82
2023/09/09 05:37:36;;;;;;;11.35;6.70;;;486.70;2380.80;;;;;;5095951;28;20422;-80
2023/09/09 05:41:06;;;;;;;10.20;6.70;;;486.60;2380.80;;;;;;5100503;28;20100;-84
2023/09/09 05:43:32;;;;;;;10.38;6.55;;;486.70;2380.80;;;;;;5096978;28;20502;-80
2023/09/09 05:46:00;;;;;;;11.55;6.30;;;486.80;2380.80;;;;;;5099170;28;20090;-79
2023/09/09 05:48:26;;;;;;;11.02;7.30;;;486.90;2380.80;;;;;;5115333;28;20016;-80
2023/09/09 05:50:55;;;;;;;11.35;6.93;;;487.00;2380.80;;;;;;5116492;28;20031;-81
2023/09/09 05:53:21;;;;;;;13.00;7.40;;;512.00;2380.80;;;;;;5104771;28;20088;-81
2023/09/09 05:55:47;;;;;;;11.88;7.47;;;512.00;2380.80;;;;;;5095226;28;20107;-80
2023/09/09 05:58:12;;;;;;;9.98;6.80;;;512.10;2380.80;;;;;;5096405;28;20150;-79
2023/09/09 06:00:38;;;;;;;12.43;7.55;;;512.60;2380.80;;;;;;5095211;28;20471;-81
2023/09/09 06:03:05;;;;;;;11.43;7.63;;;512.40;2380.80;;;;;;5105855;28;20502;-82
2023/09/09 06:05:31;;;;;;;12.85;7.47;;;512.70;2380.80;;;;;;5096585;28;20024;-80
2023/09/09 06:07:57;;;;;;;13.13;7.22;;;512.80;2380.80;;;;;;5095918;28;20040;-78
2023/09/09 06:10:23;;;;;;;10.27;7.28;;;537.80;2406.40;;;;;;5094854;28;20119;-79
2023/09/09 06:12:49;;;;;;;13.23;7.68;;;538.00;2406.40;;;;;;5095000;28;20070;-78
2023/09/09 06:15:15;;;;;;;14.18;7.88;;;537.90;2406.40;;;;;;5101672;28;20019;-80
2023/09/09 06:17:41;;;;;;;11.93;7.25;;;538.00;2406.40;;;;;;5112828;28;20081;-78
2023/09/09 06:20:07;;;;;;;11.13;7.30;;;538.30;2406.40;;;;;;5106666;28;20027;-79
2023/09/09 06:22:34;;;;;;;10.60;6.82;;;614.90;2432.00;;;;;;5114258;28;20084;-83
2023/09/09 06:25:01;;;;;;;8.80;6.57;;;;;;;;;;5115308;28;20084;-78
2023/09/09 06:27:27;;;;;;;8.88;6.40;;;793.90;1792.00;;;;;;5103378;28;20428;-78
2023/09/09 06:29:52;;;;;;;10.77;6.00;;;921.70;1382.40;;;;;;5095966;28;20028;-79
2023/09/09 06:32:18;;;;;;;10.77;6.13;;;947.70;1228.80;;;;;;5101362;28;20064;-79
2023/09/09 06:34:44;;;;;;;9.77;6.20;;;998.90;1177.60;;;;;;5116126;28;20086;-80
2023/09/09 06:37:10;;;;;;;8.32;5.60;;;1050.30;998.40;;;;;;5102896;28;20035;-79
2023/09/09 06:39:37;;;;;;;8.48;5.85;;;1050.40;1024.00;;;;;;5109341;27;20024;-79
2023/09/09 06:42:03;;;;;;;8.05;5.35;;;1075.40;998.40;;;;;;5110010;28;20024;-81
2023/09/09 06:44:29;;;;;;;9.23;5.90;;;;;;;;;;5112069;28;20094;-81
2023/09/09 06:46:58;;;;;;;8.52;5.72;;;1101.40;947.20;;;;;;5100822;28;20114;-81
2023/09/09 06:49:24;;;;;;;7.82;5.53;;;1126.60;921.60;;;;;;5100098;28;20501;-80
2023/09/09 06:51:50;;;;;;;7.80;5.35;;;1127.20;896.00;;;;;;5112355;28;20051;-83
2023/09/09 06:54:15;;;;;;;8.13;5.00;;;1127.20;896.00;;;;;;5105893;28;20036;-83
2023/09/09 06:57:19;;;;;;;5.63;4.55;;;1152.00;870.40;;;;;;5095990;28;20031;-83
2023/09/09 06:59:48;;;;;;;8.13;5.35;;;1177.60;844.80;;;;;;5093929;28;20035;-79
2023/09/09 07:02:14;;;;;;;7.63;4.60;;;1177.60;819.20;;;;;;5094738;28;20058;-80
2023/09/09 07:04:40;;;;;;;8.73;4.70;;;1152.80;819.20;;;;;;5098261;28;20122;-80
2023/09/09 07:07:05;;;;;;;7.22;4.47;;;1152.10;870.40;;;;;;5101598;28;20046;-82
2023/09/09 07:09:32;;;;;;;5.60;4.45;;;1152.10;844.80;;;;;;5114080;28;20097;-79
2023/09/09 07:11:59;;;;;;;6.20;4.88;;;1101.30;870.40;;;;;;5114335;28;20023;-78
2023/09/09 07:14:24;;;;;;;6.47;4.68;;;1049.90;896.00;;;;;;5114294;28;20028;-79
2023/09/09 07:16:50;;;;;;;7.47;4.60;;;999.30;947.20;;;;;;5111416;28;20100;-79
2023/09/09 07:19:16;;;;;;;6.47;4.47;;;947.60;998.40;;;;;;5101563;28;20115;-79
2023/09/09 07:21:42;;;;;;;9.55;5.90;;;922.10;1049.60;;;;;;5098625;28;20035;-78
2023/09/09 07:24:08;;;;;;;6.35;4.82;;;896.80;1075.20;;;;;;5112036;28;20028;-78
2023/09/09 07:26:34;;;;;;;6.80;5.15;;;870.60;1152.00;;;;;;5111761;28;20393;-79
2023/09/09 07:29:01;;;;;;;6.07;4.60;;;845.60;1203.20;;;;;;5112556;28;20034;-81
2023/09/09 07:31:28;;;;;;;7.07;4.63;;;794.40;1228.80;;;;;;5112235;28;20042;-77
2023/09/09 07:33:54;;;;;;;7.53;4.93;;;743.20;1331.20;;;;;;5104148;28;20070;-80
2023/09/09 07:36:20;;;;;;;6.90;4.80;;;743.30;1408.00;;;;;;5101786;28;20042;-79
2023/09/09 07:38:46;;;;;;;5.97;4.68;;;768.80;1382.40;;;;;;5112078;28;20123;-81
2023/09/09 07:41:12;;;;;;;5.57;4.57;;;793.90;1356.80;;;;;;5114445;28;20103;-80
2023/09/09 07:43:37;;;;;;;6.88;4.78;;;794.00;1382.40;;;;;;5097652;28;20458;-78
2023/09/09 07:46:03;;;;;;;7.45;5.28;;;819.20;1331.20;;;;;;5103796;28;20051;-82
2023/09/09 07:48:30;;;;;;;6.10;4.57;;;794.50;1356.80;;;;;;5113256;28;20042;-79
2023/09/09 07:50:59;;;;;;;7.10;4.97;;;794.40;1356.80;;;;;;5104045;28;20070;-80
2023/09/09 07:53:27;;;;;;;7.07;4.30;;;768.70;1356.80;;;;;;5101790;28;20039;-81
2023/09/09 07:55:53;;;;;;;6.43;4.30;;;793.60;1382.40;;;;;;5117340;28;20038;-78
2023/09/09 07:58:19;;;;;;;6.82;4.38;;;794.00;1356.80;;;;;;5114399;28;20024;-80
2023/09/09 08:00:46;;;;;;;6.07;4.13;;;794.00;1356.80;;;;;;5116003;28;20050;-78
2023/09/09 08:03:13;;;;;;;5.72;3.90;;;794.40;1305.60;;;;;;5118333;28;20031;-79
2023/09/09 08:05:40;;;;;;;5.95;4.20;;;794.30;1305.60;;;;;;5117254;28;20023;-79
2023/09/09 08:08:10;;;;;;;5.10;3.88;;;794.30;1280.00;;;;;;5117389;28;20024;-80
2023/09/09 08:10:36;;;;;;;5.65;3.80;;;768.80;1280.00;;;;;;5108111;28;20022;-79
2023/09/09 08:13:01;;;;;;;5.43;4.30;;;793.80;1356.80;;;;;;5097699;28;20028;-79
2023/09/09 08:15:27;;;;;;;8.18;4.15;;;793.80;1356.80;;;;;;5096516;28;20420;-80
2023/09/09 08:17:53;;;;;;;5.00;3.65;;;768.00;1331.20;;;;;;5097249;28;20028;-79
2023/09/09 08:20:19;;;;;;;5.30;3.70;;;768.50;1305.60;;;;;;5098250;28;20052;-79
2023/09/09 08:22:45;;;;;;;5.00;3.53;;;768.70;1356.80;;;;;;5095616;28;20028;-79
2023/09/09 08:25:12;;;;;;;5.13;3.60;;;794.10;1356.80;;;;;;5097071;28;20023;-80
2023/09/09 08:27:39;;;;;;;4.20;3.40;;;793.60;1305.60;;;;;;5105480;28;20040;-78
2023/09/09 08:30:06;;;;;;;6.13;3.80;;;768.80;1280.00;;;;;;5117147;28;20023;-79
2023/09/09 08:32:31;;;;;;;5.35;3.63;;;768.90;1331.20;;;;;;5115848;28;20057;-79
2023/09/09 08:34:59;;;;;;;5.90;3.50;;;794.10;1305.60;;;;;;5116846;28;20020;-79
2023/09/09 08:37:25;;;;;;;4.88;3.50;;;819.20;1280.00;;;;;;5113798;28;20043;-78
2023/09/09 08:40:11;;;;;;;4.82;3.28;;;819.30;1280.00;;;;;;5117092;28;20547;-79
2023/09/09 08:42:58;;;;;;;5.18;3.45;;;819.70;1254.40;;;;;;5114354;28;20044;-80
2023/09/09 08:45:47;;;;;;;4.57;3.30;;;820.10;1254.40;;;;;;5111963;28;20023;-79
2023/09/09 08:48:20;;;;;;;6.75;3.35;;;844.80;1254.40;;;;;;5115969;28;20044;-80
2023/09/09 08:50:47;;;;;;;5.75;3.30;;;844.80;1203.20;;;;;;5111353;28;20114;-81
2023/09/09 08:53:17;;;;;;;4.35;3.20;;;820.00;1228.80;;;;;;5114042;28;20067;-79
2023/09/09 08:55:57;;;;;;;6.13;3.40;;;844.80;1228.80;;;;;;5115966;28;20032;-80
2023/09/09 08:58:24;;;;;;;3.95;3.08;;;819.80;1203.20;;;;;;5109425;28;20115;-79
2023/09/09 09:00:50;;;;;;;4.75;3.10;;;819.80;1228.80;;;;;;5095943;28;20548;-78
2023/09/09 09:03:18;;;;;;;4.57;2.67;;;844.90;1228.80;;;;;;5108580;28;20066;-79
2023/09/09 09:05:44;;;;;;;3.33;2.60;;;845.10;1203.20;;;;;;5104709;28;20028;-79
2023/09/09 09:08:10;;;;;;;5.15;2.90;;;845.10;1177.60;;;;;;5113942;28;20039;-79
2023/09/09 09:10:42;;;;;;;4.03;3.20;;;845.20;1177.60;;;;;;5115473;28;20027;-79
2023/09/09 09:13:08;;;;;;;4.85;2.90;;;845.10;1177.60;;;;;;5116493;28;20031;-78
2023/09/09 09:15:36;;;;;;;3.47;2.80;;;844.80;1177.60;;;;;;5115652;28;20346;-79
2023/09/09 09:18:03;;;;;;;4.18;2.92;;;845.10;1177.60;;;;;;5114669;28;20093;-80
2023/09/09 09:20:31;;;;;;;3.95;2.97;;;845.10;1177.60;;;;;;5115682;28;20023;-80
2023/09/09 09:22:59;;;;;;;4.22;2.88;;;845.00;1203.20;;;;;;5115118;28;20082;-80
2023/09/09 09:25:39;;;;;;;5.40;2.95;;;845.50;1152.00;;;;;;5114617;28;20024;-81
2023/09/09 09:28:05;;;;;;;4.43;2.72;;;845.30;1536.00;;;;;;5096177;28;20035;-81
2023/09/09 09:30:33;;;;;;;4.50;2.60;;;845.40;1177.60;;;;;;5096824;28;20028;-80
2023/09/09 09:32:59;;;;;;;4.00;2.80;;;870.70;1152.00;;;;;;5097741;28;20028;-81
2023/09/09 09:35:25;;;;;;;3.83;2.97;;;871.00;1126.40;;;;;;5094982;28;20034;-80
2023/09/09 09:38:13;;;;;;;4.15;2.83;;;845.60;1126.40;;;;;;5099127;28;20333;-81
2023/09/09 09:40:40;;;;;;;3.80;2.72;;;870.50;1100.80;;;;;;5112164;28;20020;-81
2023/09/09 09:43:20;;;;;;;3.17;2.30;;;871.00;1075.20;;;;;;5114672;28;20066;-80
2023/09/09 09:45:46;;;;;;;3.55;2.65;;;896.00;1075.20;;;;;;5108825;28;20493;-81
2023/09/09 09:48:27;;;;;;;5.68;2.70;;;896.00;1075.20;;;;;;5096004;28;20393;-81
2023/09/09 09:50:53;;;;;;;4.28;2.88;;;896.10;1075.20;;;;;;5095715;28;20027;-81
2023/09/09 09:53:19;;;;;;;3.88;2.72;;;896.10;1049.60;;;;;;5095654;28;20507;-80
2023/09/09 09:55:46;;;;;;;4.93;2.95;;;896.60;1049.60;;;;;;5098804;28;20020;-79
2023/09/09 09:58:13;;;;;;;4.50;3.10;;;871.20;1049.60;;;;;;5115175;28;20105;-81
2023/09/09 10:00:39;;;;;;;3.90;3.10;;;845.50;1100.80;;;;;;5096932;28;20056;-80
2023/09/09 10:03:07;;;;;;;4.00;2.75;;;845.60;1100.80;;;;;;5093806;28;20028;-80
2023/09/09 10:05:34;;;;;;;6.07;3.05;;;870.60;1100.80;;;;;;5094832;28;20035;-81
2023/09/09 10:08:35;;;;;;;5.03;2.80;;;870.50;1100.80;;;;;;5099107;28;20028;-80
2023/09/09 10:11:12;;;;;;;3.30;2.70;;;819.90;1126.40;;;;;;5110229;28;20031;-81
2023/09/09 10:13:43;;;;;;;3.70;2.80;;;845.40;1126.40;;;;;;5107800;27;20035;-81
2023/09/09 10:16:11;;;;;;;3.40;2.80;;;870.70;1100.80;;;;;;5099974;28;20598;-80
2023/09/09 10:18:38;;;;;;;3.83;2.72;;;871.20;1075.20;;;;;;5113792;28;20031;-79
2023/09/09 10:21:06;;;;;;;3.28;2.70;;;871.20;1049.60;;;;;;5116434;28;20020;-80
2023/09/09 10:23:32;;;;;;;3.20;2.50;;;896.10;1049.60;;;;;;5116072;28;20105;-79
2023/09/09 10:26:00;;;;;;;3.80;3.03;;;896.30;1049.60;;;;;;5113676;28;20043;-80
2023/09/09 10:28:26;;;;;;;4.10;2.75;;;896.60;1024.00;;;;;;5115205;28;20030;-79
2023/09/09 10:30:57;;;;;;;3.72;2.83;;;921.70;1049.60;;;;;;5115874;28;20138;-79
2023/09/09 10:33:24;;;;;;;3.15;2.60;;;896.40;1024.00;;;;;;5112772;28;20024;-81
2023/09/09 10:35:51;;;;;;;3.58;2.72;;;871.00;1024.00;;;;;;5097545;28;20024;-80
2023/09/09 10:38:18;;;;;;;3.92;2.63;;;870.70;1075.20;;;;;;5095458;28;20032;-80
2023/09/09 10:40:48;;;;;;;3.83;2.78;;;871.00;1049.60;;;;;;5094367;28;20516;-79
2023/09/09 10:43:14;;;;;;;3.25;2.50;;;896.10;1024.00;;;;;;5106078;28;20040;-81
2023/09/09 10:45:43;;;;;;;3.88;2.78;;;896.70;1024.00;;;;;;5098551;28;20035;-80
2023/09/09 10:48:12;;;;;;;3.83;2.80;;;896.80;972.80;;;;;;5109569;28;20074;-79
2023/09/09 10:50:47;;;;;;;4.03;2.70;;;921.90;972.80;;;;;;5097959;28;20362;-80
2023/09/09 10:53:27;;;;;;;3.47;2.70;;;896.00;972.80;;;;;;5102675;28;20088;-81
2023/09/09 10:55:54;;;;;;;3.83;2.72;;;870.70;1024.00;;;;;;5095025;28;20546;-81
2023/09/09 10:58:30;;;;;;;3.80;2.53;;;870.50;1024.00;;;;;;5113366;28;20047;-80
2023/09/09 11:00:57;;;;;;;3.63;2.45;;;845.20;1075.20;;;;;;5113135;28;20093;-79
2023/09/09 11:03:38;;;;;;;4.45;2.88;;;845.60;1049.60;;;;;;5094993;28;20044;-80
2023/09/09 11:06:05;;;;;;;3.67;2.78;;;870.50;1024.00;;;;;;5104654;28;20477;-80
2023/09/09 11:08:33;;;;;;;3.95;2.80;;;870.60;1024.00;;;;;;5113082;28;20024;-80
2023/09/09 11:11:18;;;;;;;5.28;2.63;;;845.30;1049.60;;;;;;5114473;28;20024;-80
2023/09/09 11:14:05;;;;;;;5.15;2.78;;;845.10;1049.60;;;;;;5114030;28;20019;-80
2023/09/09 11:16:34;;;;;;;3.67;2.65;;;870.60;1024.00;;;;;;5114016;28;20024;-80
2023/09/09 11:19:03;;;;;;;3.65;2.40;;;896.00;998.40;;;;;;5097747;28;20050;-80
2023/09/09 11:21:34;;;;;;;3.50;2.58;;;896.40;998.40;;;;;;5097856;28;20028;-79
2023/09/09 11:24:02;;;;;;;3.83;2.80;;;896.40;972.80;;;;;;5096230;28;20039;-81
2023/09/09 11:26:32;;;;;;;3.30;2.70;;;871.20;998.40;;;;;;5105479;28;20055;-80
2023/09/09 11:28:59;;;;;;;3.92;2.95;;;871.00;972.80;;;;;;5108122;28;20071;-80
2023/09/09 11:31:24;;;;;;;4.05;3.00;;;871.30;998.40;;;;;;5108727;28;20023;-81
2023/09/09 11:33:54;;;;;;;4.05;2.80;;;870.70;1024.00;;;;;;5111592;28;20050;-81
2023/09/09 11:36:19;;;;;;;5.75;2.70;;;871.00;1024.00;;;;;;5105034;28;20114;-81
2023/09/09 11:38:45;;;;;;;3.88;2.95;;;871.20;998.40;;;;;;5097452;28;20058;-81
2023/09/09 11:41:24;;;;;;;4.10;2.60;;;896.60;998.40;;;;;;5099684;28;20024;-80
2023/09/09 11:44:06;;;;;;;3.95;2.97;;;921.90;998.40;;;;;;5119215;28;20528;-80
2023/09/09 11:46:50;;;;;;;4.47;3.92;;;922.40;972.80;;;;;;5117760;28;20456;-79
2023/09/09 11:49:17;;;;;;;4.07;2.80;;;947.40;947.20;;;;;;5124811;28;20023;-80
2023/09/09 11:51:44;;;;;;;4.47;2.75;;;947.50;921.60;;;;;;5130992;28;20027;-80
2023/09/09 11:54:14;;;;;;;4.32;2.95;;;947.80;921.60;;;;;;5131255;28;20028;-81
2023/09/09 11:56:40;;;;;;;4.47;2.70;;;947.50;921.60;;;;;;5130324;28;20078;-80
2023/09/09 11:59:10;;;;;;;5.05;3.05;;;922.40;921.60;;;;;;5131090;28;20044;-80
2023/09/09 12:01:54;;;;;;;4.28;2.80;;;921.90;947.20;;;;;;5134968;28;20019;-80
2023/09/09 12:04:19;;;;;;;4.60;3.10;;;896.70;947.20;;;;;;5129901;28;20020;-79
2023/09/09 12:06:53;;;;;;;5.90;3.20;;;871.20;972.80;;;;;;5129715;27;20124;-79
2023/09/09 12:09:19;;;;;;;6.10;3.08;;;870.90;998.40;;;;;;5128733;28;20019;-78
2023/09/09 12:11:45;;;;;;;3.47;2.60;;;870.80;998.40;;;;;;5125601;28;20032;-79
2023/09/09 12:14:13;;;;;;;4.13;2.70;;;870.70;1024.00;;;;;;5129735;28;20032;-80
2023/09/09 12:16:40;;;;;;;4.47;3.65;;;870.80;1024.00;;;;;;5127429;28;20028;-80
2023/09/09 12:19:11;;;;;;;4.88;3.40;;;896.00;972.80;;;;;;5130175;28;20075;-81
2023/09/09 12:21:45;;;;;;;3.60;2.83;;;896.10;972.80;;;;;;5144438;27;20016;-80
2023/09/09 12:24:11;;;;;;;6.57;4.38;;;896.80;972.80;;;;;;5127365;28;20043;-81
2023/09/09 12:26:39;;;;;;;4.68;4.10;;;896.90;947.20;;;;;;5130940;28;20065;-80
2023/09/09 12:29:10;;;;;;;4.88;3.30;;;921.70;972.80;;;;;;5128591;28;20004;-81
2023/09/09 12:31:55;;;;;;;3.80;2.90;;;921.90;947.20;;;;;;5126566;28;20011;-80
2023/09/09 12:34:24;;;;;;;3.85;3.35;;;896.80;921.60;;;;;;5130288;28;20057;-80
2023/09/09 12:36:55;;;;;;;4.10;3.20;;;922.10;947.20;;;;;;5132552;28;20028;-82
2023/09/09 12:39:25;;;;;;;3.92;3.10;;;922.40;921.60;;;;;;5129741;28;20054;-81
2023/09/09 12:42:05;;;;;;;3.78;3.00;;;922.00;947.20;;;;;;5127980;28;20080;-79
2023/09/09 12:44:48;;;;;;;4.28;2.75;;;921.90;947.20;;;;;;5127818;28;20032;-80
2023/09/09 12:47:23;;;;;;;3.78;3.05;;;896.80;972.80;;;;;;5130801;28;20032;-81
2023/09/09 12:49:52;;;;;;;;;;;896.70;972.80;;;;;;5132804;28;20016;-81
2023/09/09 12:52:19;;;;;;;3.80;2.90;;;896.40;947.20;;;;;;5131627;28;19907;-80
2023/09/09 12:54:45;;;;;;;4.18;3.00;;;896.70;947.20;;;;;;5130374;28;20441;-81
2023/09/09 12:57:10;;;;;;;4.55;2.90;;;921.90;947.20;;;;;;5128892;28;20051;-80
2023/09/09 12:59:36;;;;;;;3.97;2.80;;;921.80;921.60;;;;;;5129056;28;20020;-80
2023/09/09 13:02:02;;;;;;;6.57;2.70;;;921.70;947.20;;;;;;5126575;28;20020;-81
2023/09/09 13:04:28;;;;;;;4.13;2.67;;;921.80;921.60;;;;;;5130784;28;20034;-82